Time;durP1;ratioP1;P1;durP2;ratioP2;P2;SDS_P1;SDS_P2;PMS_P1;PMS_P2;Temp;Humidity;BMP_temperature;BMP_pressure;BME280_temperature;BME280_humidity;BME280_pressure;Samples;Min_cycle;Max_cycle;Signal;HPM_P1;HPM_P2
2021/12/03 00:01:02;;;;;;;8.98;4.72;;;;;;;;;;5019796;28;20392;-79
2021/12/03 00:03:28;;;;;;;7.85;4.38;;;;;;;;;;5017621;28;20034;-77
2021/12/03 00:05:56;;;;;;;7.15;3.97;;;;;;;;;;5016330;28;20044;-77
2021/12/03 00:08:24;;;;;;;6.82;4.07;;;;;;;;;;5016707;28;20045;-78
2021/12/03 00:10:55;;;;;;;9.98;4.60;;;;;;;;;;5013639;28;20391;-78
2021/12/03 00:13:22;;;;;;;8.68;4.15;;;;;;;;;;5012120;28;20054;-78
2021/12/03 00:15:49;;;;;;;7.65;4.57;;;;;;;;;;5011017;28;20551;-78
2021/12/03 00:18:15;;;;;;;7.00;4.38;;;;;;;;;;5010673;28;20049;-78
2021/12/03 00:20:41;;;;;;;8.38;4.65;;;;;;;;;;5010775;28;20049;-77
2021/12/03 00:23:08;;;;;;;7.90;4.50;;;;;;;;;;5010603;28;20125;-79
2021/12/03 00:25:35;;;;;;;6.55;4.13;;;;;;;;;;5010604;28;20038;-78
2021/12/03 00:28:02;;;;;;;7.28;4.43;;;;;;;;;;5010409;28;20048;-78
2021/12/03 00:30:28;;;;;;;7.18;4.20;;;;;;;;;;5011000;28;20038;-78
2021/12/03 00:32:54;;;;;;;8.80;4.20;;;;;;;;;;5011311;28;20037;-79
2021/12/03 00:35:20;;;;;;;7.50;4.40;;;;;;;;;;5014048;28;20038;-79
2021/12/03 00:37:47;;;;;;;6.38;3.83;;;;;;;;;;5013365;28;20495;-79
2021/12/03 00:40:21;;;;;;;7.45;4.38;;;;;;;;;;5014152;28;20041;-79
2021/12/03 00:42:47;;;;;;;6.30;4.20;;;;;;;;;;5013972;28;20053;-79
2021/12/03 00:45:13;;;;;;;7.60;4.55;;;;;;;;;;5014159;28;20042;-79
2021/12/03 00:47:40;;;;;;;9.02;4.45;;;;;;;;;;5014089;28;20034;-79
2021/12/03 00:50:08;;;;;;;8.30;4.78;;;;;;;;;;5013554;28;20049;-79
2021/12/03 00:52:34;;;;;;;9.07;5.15;;;;;;;;;;5013681;28;20030;-79
2021/12/03 00:55:00;;;;;;;9.15;4.80;;;;;;;;;;5013871;28;20150;-78
2021/12/03 00:57:27;;;;;;;9.70;4.65;;;;;;;;;;5013936;28;20052;-78
2021/12/03 00:59:52;;;;;;;9.23;5.28;;;;;;;;;;5013883;28;20037;-78
2021/12/03 01:02:18;;;;;;;10.05;5.60;;;;;;;;;;5012392;28;20034;-78
2021/12/03 01:04:46;;;;;;;11.13;5.90;;;;;;;;;;5013633;28;20038;-78
2021/12/03 01:07:14;;;;;;;10.32;5.85;;;;;;;;;;5013430;28;20045;-78
2021/12/03 01:09:40;;;;;;;10.93;5.82;;;;;;;;;;5013826;28;20028;-79
2021/12/03 01:12:06;;;;;;;9.15;5.55;;;;;;;;;;5012740;28;20427;-78
2021/12/03 01:14:32;;;;;;;9.80;5.90;;;;;;;;;;5013297;28;20388;-77
2021/12/03 01:16:58;;;;;;;10.75;6.60;;;;;;;;;;5013640;28;20038;-78
2021/12/03 01:19:24;;;;;;;10.57;6.32;;;;;;;;;;5013454;28;20042;-78
2021/12/03 01:21:51;;;;;;;10.63;6.07;;;;;;;;;;5013458;28;20037;-79
2021/12/03 01:24:17;;;;;;;9.73;6.10;;;;;;;;;;5013113;28;20034;-78
2021/12/03 01:26:45;;;;;;;10.63;6.65;;;;;;;;;;5012921;28;20073;-78
2021/12/03 01:29:11;;;;;;;12.32;6.57;;;;;;;;;;5014285;28;20038;-78
2021/12/03 01:31:37;;;;;;;12.02;6.88;;;;;;;;;;5015151;28;20033;-78
2021/12/03 01:34:04;;;;;;;11.32;6.95;;;;;;;;;;5013846;28;20408;-78
2021/12/03 01:36:30;;;;;;;13.57;7.03;;;;;;;;;;5013737;28;20041;-79
2021/12/03 01:38:56;;;;;;;13.18;6.88;;;;;;;;;;5013279;28;20042;-78
2021/12/03 01:41:22;;;;;;;11.13;6.63;;;;;;;;;;5011721;28;20121;-79
2021/12/03 01:43:50;;;;;;;13.20;8.18;;;;;;;;;;5013276;28;20026;-79
2021/12/03 01:46:19;;;;;;;13.77;8.20;;;;;;;;;;5011255;28;20046;-78
2021/12/03 01:48:45;;;;;;;13.80;7.70;;;;;;;;;;5013117;28;20041;-77
2021/12/03 01:51:10;;;;;;;13.98;8.00;;;;;;;;;;5014863;28;20052;-77
2021/12/03 01:53:38;;;;;;;16.55;8.63;;;;;;;;;;5022281;28;20038;-78
2021/12/03 01:56:09;;;;;;;15.77;8.38;;;;;;;;;;5036519;28;20038;-78
2021/12/03 01:58:35;;;;;;;14.60;8.83;;;;;;;;;;5020373;28;20034;-78
2021/12/03 02:01:06;;;;;;;11.98;7.68;;;;;;;;;;5022216;28;20042;-77
2021/12/03 02:03:34;;;;;;;15.63;8.40;;;;;;;;;;5022606;28;20041;-78
2021/12/03 02:06:02;;;;;;;16.80;9.18;;;;;;;;;;5011696;28;20392;-78
2021/12/03 02:08:27;;;;;;;14.82;8.90;;;;;;;;;;5018932;28;20041;-76
2021/12/03 02:10:54;;;;;;;16.17;9.43;;;;;;;;;;5018712;28;20050;-77
2021/12/03 02:13:20;;;;;;;18.13;9.82;;;;;;;;;;5015365;28;20038;-77
2021/12/03 02:15:47;;;;;;;16.20;9.15;;;;;;;;;;5020489;28;20030;-78
2021/12/03 02:18:15;;;;;;;17.50;10.07;;;;;;;;;;5016596;28;20042;-77
2021/12/03 02:20:43;;;;;;;16.17;9.25;;;;;;;;;;5020103;28;20042;-77
2021/12/03 02:23:10;;;;;;;17.33;10.07;;;;;;;;;;5010909;28;20042;-77
2021/12/03 02:25:36;;;;;;;18.15;10.40;;;;;;;;;;5010064;28;20042;-78
2021/12/03 02:28:02;;;;;;;19.80;10.55;;;;;;;;;;5026958;28;20056;-78
2021/12/03 02:30:28;;;;;;;20.75;10.80;;;;;;;;;;5011726;28;20042;-77
2021/12/03 02:32:54;;;;;;;19.30;10.57;;;;;;;;;;5010268;28;20396;-78
2021/12/03 02:35:22;;;;;;;18.83;10.98;;;;;;;;;;5017685;28;20053;-77
2021/12/03 02:37:49;;;;;;;19.20;10.40;;;;;;;;;;4991809;28;20038;-77
2021/12/03 02:40:16;;;;;;;17.55;10.70;;;;;;;;;;4992065;28;20499;-77
2021/12/03 02:42:42;;;;;;;19.65;10.30;;;;;;;;;;4991672;28;20539;-78
2021/12/03 02:45:10;;;;;;;18.27;10.32;;;;;;;;;;4992016;28;20049;-77
2021/12/03 02:47:36;;;;;;;19.33;9.77;;;;;;;;;;4992154;28;20417;-78
2021/12/03 02:50:05;;;;;;;21.65;11.50;;;;;;;;;;4991841;28;20030;-77
2021/12/03 02:52:31;;;;;;;17.85;10.15;;;;;;;;;;5006605;28;20045;-77
2021/12/03 02:54:57;;;;;;;19.00;10.80;;;;;;;;;;4991576;28;20049;-78
2021/12/03 02:57:23;;;;;;;20.00;10.45;;;;;;;;;;4990957;28;20050;-77
2021/12/03 02:59:49;;;;;;;18.30;9.90;;;;;;;;;;4993878;28;20038;-77
2021/12/03 03:02:15;;;;;;;16.80;9.73;;;;;;;;;;5010996;28;20411;-76
2021/12/03 03:04:41;;;;;;;19.83;10.27;;;;;;;;;;5009581;28;20118;-76
2021/12/03 03:07:07;;;;;;;18.50;10.57;;;;;;;;;;5010689;28;20499;-77
2021/12/03 03:09:34;;;;;;;20.60;10.50;;;;;;;;;;5011018;28;20041;-76
2021/12/03 03:12:00;;;;;;;16.80;10.40;;;;;;;;;;5011134;28;20045;-78
2021/12/03 03:14:27;;;;;;;17.83;10.45;;;;;;;;;;5009521;28;20149;-77
2021/12/03 03:16:53;;;;;;;13.88;7.93;;;;;;;;;;5011126;28;20037;-77
2021/12/03 03:19:22;;;;;;;15.57;8.38;;;;;;;;;;5011261;28;20026;-77
2021/12/03 03:21:48;;;;;;;13.98;7.40;;;;;;;;;;5010456;28;20030;-77
2021/12/03 03:24:15;;;;;;;14.93;7.15;;;;;;;;;;5008750;28;20045;-78
2021/12/03 03:26:43;;;;;;;15.02;7.38;;;;;;;;;;5010575;28;20048;-78
2021/12/03 03:29:11;;;;;;;12.98;6.32;;;;;;;;;;5010298;28;20361;-78
2021/12/03 03:31:38;;;;;;;14.00;6.75;;;;;;;;;;5010223;28;20038;-78
2021/12/03 03:34:05;;;;;;;12.85;6.00;;;;;;;;;;5010159;28;20504;-78
2021/12/03 03:36:33;;;;;;;15.43;6.00;;;;;;;;;;5010517;28;20038;-77
2021/12/03 03:38:59;;;;;;;13.15;6.18;;;;;;;;;;5008666;28;20357;-77
2021/12/03 03:41:25;;;;;;;13.15;6.38;;;;;;;;;;5010835;28;20116;-77
2021/12/03 03:43:51;;;;;;;11.38;6.00;;;;;;;;;;5010312;28;20580;-77
2021/12/03 03:46:17;;;;;;;13.60;6.00;;;;;;;;;;5008731;28;20653;-77
2021/12/03 03:48:43;;;;;;;13.32;6.20;;;;;;;;;;5010627;28;20495;-77
2021/12/03 03:51:09;;;;;;;11.27;5.65;;;;;;;;;;5010475;28;20034;-77
2021/12/03 03:53:38;;;;;;;11.98;6.00;;;;;;;;;;5009745;28;20042;-76
2021/12/03 03:56:06;;;;;;;13.05;5.72;;;;;;;;;;5010591;28;20033;-78
2021/12/03 03:58:32;;;;;;;11.90;5.53;;;;;;;;;;5009766;28;20046;-77
2021/12/03 04:00:58;;;;;;;10.45;5.40;;;;;;;;;;5009723;28;20038;-77
2021/12/03 04:03:24;;;;;;;10.13;5.25;;;;;;;;;;5008228;28;20037;-77
2021/12/03 04:05:51;;;;;;;11.60;5.82;;;;;;;;;;5010458;28;20038;-77
2021/12/03 04:08:16;;;;;;;12.98;6.10;;;;;;;;;;5010608;28;20057;-77
2021/12/03 04:10:42;;;;;;;12.15;5.40;;;;;;;;;;5013802;28;20062;-77
2021/12/03 04:13:08;;;;;;;11.30;5.50;;;;;;;;;;5014161;28;20037;-77
2021/12/03 04:15:34;;;;;;;10.15;5.40;;;;;;;;;;5014584;28;20045;-78
2021/12/03 04:18:00;;;;;;;12.00;5.10;;;;;;;;;;5013854;28;20053;-77
2021/12/03 04:20:26;;;;;;;10.15;5.30;;;;;;;;;;5013631;28;20034;-77
2021/12/03 04:22:52;;;;;;;15.40;6.00;;;;;;;;;;5014250;28;20038;-77
2021/12/03 04:25:21;;;;;;;10.60;5.10;;;;;;;;;;5028692;28;20640;-77
2021/12/03 04:27:48;;;;;;;10.70;5.28;;;;;;;;;;5013782;28;20364;-77
2021/12/03 04:30:20;;;;;;;10.43;5.30;;;;;;;;;;5012530;28;20037;-79
2021/12/03 04:32:46;;;;;;;9.90;4.85;;;;;;;;;;5029115;28;20052;-77
2021/12/03 04:35:13;;;;;;;10.13;5.63;;;;;;;;;;5013483;28;20046;-77
2021/12/03 04:37:39;;;;;;;10.80;5.20;;;;;;;;;;5011900;28;20038;-77
2021/12/03 04:40:07;;;;;;;11.98;5.35;;;;;;;;;;5013597;28;20038;-78
2021/12/03 04:42:32;;;;;;;9.35;5.05;;;;;;;;;;5013614;28;20048;-78
2021/12/03 04:44:59;;;;;;;9.48;5.03;;;;;;;;;;5028977;28;20449;-77
2021/12/03 04:47:24;;;;;;;12.25;5.78;;;;;;;;;;5013273;28;20037;-78
2021/12/03 04:49:50;;;;;;;10.20;5.60;;;;;;;;;;5013570;28;20795;-77
2021/12/03 04:52:16;;;;;;;12.77;5.55;;;;;;;;;;5013551;28;20391;-78
2021/12/03 04:54:42;;;;;;;11.30;5.38;;;;;;;;;;5012463;28;20056;-80
2021/12/03 04:57:09;;;;;;;10.95;5.25;;;;;;;;;;5013056;28;20452;-77
2021/12/03 04:59:35;;;;;;;9.10;4.90;;;;;;;;;;5013379;28;20480;-77
2021/12/03 05:02:01;;;;;;;10.30;4.97;;;;;;;;;;5026385;28;20399;-77
2021/12/03 05:04:35;;;;;;;11.15;5.65;;;;;;;;;;5033143;28;20041;-79
2021/12/03 05:09:37;;;;;;;9.48;5.05;;;;;;;;;;5016862;28;20045;-78
2021/12/03 05:12:04;;;;;;;11.73;5.40;;;;;;;;;;5013462;28;20038;-77
2021/12/03 05:14:30;;;;;;;11.23;4.65;;;;;;;;;;5012499;28;20042;-77
2021/12/03 05:16:56;;;;;;;13.32;5.53;;;;;;;;;;5025618;28;20049;-77
2021/12/03 05:19:23;;;;;;;11.50;5.32;;;;;;;;;;5040462;28;20375;-76
2021/12/03 05:21:49;;;;;;;10.60;5.07;;;;;;;;;;5026870;28;20037;-77
2021/12/03 05:24:34;;;;;;;13.75;5.97;;;;;;;;;;5026218;28;20037;-75
2021/12/03 05:26:59;;;;;;;12.35;5.45;;;;;;;;;;5032816;28;20048;-77
2021/12/03 05:29:25;;;;;;;9.75;4.95;;;;;;;;;;5004263;28;20137;-77
2021/12/03 05:31:51;;;;;;;12.98;5.57;;;;;;;;;;5014385;28;20052;-76
2021/12/03 05:34:17;;;;;;;12.25;5.53;;;;;;;;;;5022365;28;20053;-74
2021/12/03 05:36:46;;;;;;;11.32;5.30;;;;;;;;;;5027031;28;20052;-75
2021/12/03 05:39:12;;;;;;;14.20;5.78;;;;;;;;;;5037859;28;20061;-80
2021/12/03 05:41:39;;;;;;;9.88;5.05;;;;;;;;;;5013190;28;20037;-79
2021/12/03 05:44:05;;;;;;;11.70;5.40;;;;;;;;;;5011641;28;20038;-79
2021/12/03 05:46:31;;;;;;;10.80;5.25;;;;;;;;;;5012842;28;20058;-79
2021/12/03 05:48:58;;;;;;;14.00;5.78;;;;;;;;;;5027864;28;20490;-79
2021/12/03 05:51:26;;;;;;;10.57;5.45;;;;;;;;;;5012690;28;20033;-81
2021/12/03 05:53:53;;;;;;;9.18;4.90;;;;;;;;;;5026766;28;20408;-80
2021/12/03 05:56:19;;;;;;;12.07;5.88;;;;;;;;;;5012443;28;20480;-80
2021/12/03 05:58:45;;;;;;;10.15;5.13;;;;;;;;;;5021344;28;20049;-70
2021/12/03 06:01:11;;;;;;;8.90;5.22;;;;;;;;;;5026215;28;20403;-78
2021/12/03 06:03:37;;;;;;;9.73;4.78;;;;;;;;;;5012524;28;20054;-76
2021/12/03 06:06:03;;;;;;;10.90;5.70;;;;;;;;;;5014951;28;20503;-80
2021/12/03 06:08:29;;;;;;;11.57;5.82;;;;;;;;;;5012617;28;20038;-79
2021/12/03 06:10:55;;;;;;;12.57;5.38;;;;;;;;;;5013584;28;20409;-80
2021/12/03 06:13:21;;;;;;;10.07;5.72;;;;;;;;;;5012875;28;20471;-79
2021/12/03 06:15:47;;;;;;;9.15;4.80;;;;;;;;;;5013235;28;20042;-79
2021/12/03 06:18:13;;;;;;;9.13;4.97;;;;;;;;;;5012644;28;20056;-79
2021/12/03 06:20:39;;;;;;;11.05;5.20;;;;;;;;;;5012957;28;20496;-79
2021/12/03 06:23:05;;;;;;;9.05;4.80;;;;;;;;;;5012644;28;20033;-79
2021/12/03 06:25:31;;;;;;;13.07;5.45;;;;;;;;;;5012234;28;20057;-79
2021/12/03 06:27:58;;;;;;;27.65;12.60;;;;;;;;;;5012578;28;20042;-79
2021/12/03 06:30:25;;;;;;;21.17;10.25;;;;;;;;;;5012268;28;20042;-79
2021/12/03 06:32:52;;;;;;;13.35;5.38;;;;;;;;;;5011278;28;20396;-79
2021/12/03 06:35:19;;;;;;;10.50;5.85;;;;;;;;;;5027827;28;20026;-79
2021/12/03 06:37:46;;;;;;;9.73;5.07;;;;;;;;;;5010674;28;20061;-79
2021/12/03 06:40:17;;;;;;;10.05;5.53;;;;;;;;;;5016619;28;20048;-78
2021/12/03 06:42:42;;;;;;;11.70;6.47;;;;;;;;;;5023814;28;20022;-78
2021/12/03 06:45:10;;;;;;;11.48;5.55;;;;;;;;;;5024248;28;20037;-79
2021/12/03 06:47:36;;;;;;;13.80;6.00;;;;;;;;;;5036024;28;20046;-79
2021/12/03 06:50:05;;;;;;;12.35;6.07;;;;;;;;;;5019142;28;20029;-78
2021/12/03 06:52:32;;;;;;;12.00;5.60;;;;;;;;;;5016949;28;20484;-78
2021/12/03 06:55:01;;;;;;;13.45;5.65;;;;;;;;;;5012385;28;20064;-78
2021/12/03 06:57:27;;;;;;;10.75;5.25;;;;;;;;;;5011043;28;20038;-78
2021/12/03 06:59:53;;;;;;;10.93;5.35;;;;;;;;;;5011823;28;20062;-79
2021/12/03 07:02:19;;;;;;;10.13;5.70;;;;;;;;;;5011953;28;20044;-78
2021/12/03 07:04:46;;;;;;;13.48;5.88;;;;;;;;;;5011370;28;20038;-79
2021/12/03 07:07:12;;;;;;;9.48;5.38;;;;;;;;;;5011273;28;20602;-78
2021/12/03 07:09:38;;;;;;;13.18;6.10;;;;;;;;;;5011614;28;20064;-79
2021/12/03 07:12:04;;;;;;;13.05;6.15;;;;;;;;;;5011199;28;20436;-79
2021/12/03 07:14:30;;;;;;;17.27;7.45;;;;;;;;;;5010506;28;20524;-79
2021/12/03 07:16:59;;;;;;;15.65;6.75;;;;;;;;;;5010602;28;20579;-79
2021/12/03 07:19:25;;;;;;;37.25;17.00;;;;;;;;;;5011216;28;20050;-73
2021/12/03 07:21:51;;;;;;;22.00;8.75;;;;;;;;;;5016019;28;20492;-77
2021/12/03 07:24:17;;;;;;;17.13;6.82;;;;;;;;;;5029894;28;20068;-79
2021/12/03 07:26:42;;;;;;;16.05;7.10;;;;;;;;;;5023531;28;20487;-79
2021/12/03 07:29:08;;;;;;;14.25;7.10;;;;;;;;;;5008687;28;20068;-78
2021/12/03 07:31:34;;;;;;;13.32;7.30;;;;;;;;;;5010982;28;20058;-78
2021/12/03 07:34:00;;;;;;;12.20;6.10;;;;;;;;;;5010402;28;20582;-81
2021/12/03 07:36:26;;;;;;;13.23;6.50;;;;;;;;;;5011330;28;20037;-80
2021/12/03 07:38:52;;;;;;;25.75;7.38;;;;;;;;;;5010751;28;20492;-80
2021/12/03 07:41:18;;;;;;;24.73;6.82;;;;;;;;;;5008808;28;20026;-81
2021/12/03 07:43:44;;;;;;;35.60;7.85;;;;;;;;;;5010244;28;20046;-79
2021/12/03 07:46:10;;;;;;;19.50;6.50;;;;;;;;;;5009652;28;20041;-81
2021/12/03 07:48:37;;;;;;;14.45;5.88;;;;;;;;;;5010138;28;20038;-79
2021/12/03 07:51:03;;;;;;;14.63;5.70;;;;;;;;;;4994161;28;20047;-79
2021/12/03 07:53:29;;;;;;;19.95;5.70;;;;;;;;;;5009772;28;20452;-80
2021/12/03 07:55:55;;;;;;;11.02;5.30;;;;;;;;;;5010576;28;20038;-80
2021/12/03 07:58:21;;;;;;;9.23;5.38;;;;;;;;;;5005775;28;20050;-81
2021/12/03 08:00:48;;;;;;;10.35;4.93;;;;;;;;;;5006478;28;20057;-80
2021/12/03 08:03:14;;;;;;;10.68;6.10;;;;;;;;;;5007504;28;20049;-80
2021/12/03 08:05:40;;;;;;;11.70;5.97;;;;;;;;;;5007970;28;20478;-81
2021/12/03 08:08:07;;;;;;;9.48;5.30;;;;;;;;;;5009154;28;20141;-81
2021/12/03 08:10:37;;;;;;;12.80;4.93;;;;;;;;;;5007758;28;20219;-80
2021/12/03 08:13:03;;;;;;;12.75;7.00;;;;;;;;;;5011460;28;20057;-83
2021/12/03 08:15:37;;;;;;;11.50;5.68;;;;;;;;;;5010509;28;20022;-82
2021/12/03 08:18:03;;;;;;;14.98;5.68;;;;;;;;;;5010050;28;20030;-82
2021/12/03 08:20:29;;;;;;;9.32;5.18;;;;;;;;;;5010080;28;20025;-83
2021/12/03 08:22:55;;;;;;;9.77;4.68;;;;;;;;;;5010650;28;20026;-83
2021/12/03 08:25:20;;;;;;;8.70;4.28;;;;;;;;;;5008039;28;20605;-84
2021/12/03 08:27:46;;;;;;;10.50;4.72;;;;;;;;;;5004183;28;20125;-81
2021/12/03 08:30:13;;;;;;;11.90;4.85;;;;;;;;;;5008064;28;20137;-81
2021/12/03 08:32:42;;;;;;;12.18;5.15;;;;;;;;;;5007375;28;20037;-81
2021/12/03 08:35:08;;;;;;;8.90;4.68;;;;;;;;;;5008822;28;20025;-82
2021/12/03 08:37:34;;;;;;;9.40;4.80;;;;;;;;;;5008217;28;20034;-81
2021/12/03 08:40:00;;;;;;;26.50;14.95;;;;;;;;;;5007735;28;21101;-80
2021/12/03 08:42:26;;;;;;;11.80;5.60;;;;;;;;;;5013059;28;20038;-81
2021/12/03 08:44:52;;;;;;;12.65;5.55;;;;;;;;;;5014749;28;20045;-82
2021/12/03 08:47:18;;;;;;;9.65;5.13;;;;;;;;;;5014692;28;20484;-80
2021/12/03 08:49:52;;;;;;;10.80;5.35;;;;;;;;;;5007749;28;20049;-81
2021/12/03 08:57:31;;;;;;;10.77;4.88;;;;;;;;;;5005964;28;20046;-80
2021/12/03 09:00:08;;;;;;;13.00;4.90;;;;;;;;;;5006778;28;20041;-80
2021/12/03 09:02:34;;;;;;;12.52;5.32;;;;;;;;;;5010826;28;20025;-80
2021/12/03 09:05:00;;;;;;;10.25;5.00;;;;;;;;;;5010001;28;20026;-80
2021/12/03 09:07:27;;;;;;;10.60;5.22;;;;;;;;;;5010778;28;20042;-80
2021/12/03 09:09:53;;;;;;;10.73;5.30;;;;;;;;;;5012367;28;20482;-80
2021/12/03 09:12:18;;;;;;;10.27;4.85;;;;;;;;;;5008555;28;20054;-80
2021/12/03 09:14:57;;;;;;;8.85;4.32;;;;;;;;;;5012387;28;20472;-80
2021/12/03 09:17:34;;;;;;;12.63;5.03;;;;;;;;;;5013460;28;20025;-80
2021/12/03 09:22:41;;;;;;;10.60;4.95;;;;;;;;;;5013495;28;20317;-81
2021/12/03 09:25:14;;;;;;;9.85;5.05;;;;;;;;;;5013403;28;20465;-81
2021/12/03 09:27:40;;;;;;;9.75;5.00;;;;;;;;;;5011412;28;20034;-80
2021/12/03 09:30:08;;;;;;;8.95;4.90;;;;;;;;;;5001296;28;20130;-80
2021/12/03 09:32:35;;;;;;;12.77;4.70;;;;;;;;;;5009262;28;20041;-81
2021/12/03 09:35:03;;;;;;;11.55;5.18;;;;;;;;;;5010005;28;20025;-81
2021/12/03 09:37:29;;;;;;;10.88;5.07;;;;;;;;;;5012796;28;20041;-81
2021/12/03 09:39:56;;;;;;;9.20;5.40;;;;;;;;;;5012372;28;20404;-81
2021/12/03 09:42:22;;;;;;;10.32;5.22;;;;;;;;;;5013716;28;20033;-81
2021/12/03 09:44:51;;;;;;;11.57;6.00;;;;;;;;;;5012804;28;20484;-81
2021/12/03 09:47:20;;;;;;;12.27;5.70;;;;;;;;;;4996429;28;20041;-81
2021/12/03 09:49:54;;;;;;;19.17;6.32;;;;;;;;;;5012140;28;20524;-81
2021/12/03 09:52:37;;;;;;;9.57;5.78;;;;;;;;;;5000548;28;20053;-81
2021/12/03 09:55:12;;;;;;;10.02;5.13;;;;;;;;;;5010283;28;20404;-79
2021/12/03 09:57:43;;;;;;;10.25;5.20;;;;;;;;;;5008194;28;20050;-80
2021/12/03 10:13:18;;;;;;;10.60;4.93;;;;;;;;;;5011547;28;20033;-80
2021/12/03 10:24:23;;;;;;;10.40;4.13;;;;;;;;;;4992570;28;20037;-80
2021/12/03 10:30:05;;;;;;;9.85;4.28;;;;;;;;;;4995856;28;20038;-79
2021/12/03 10:35:33;;;;;;;9.45;4.40;;;;;;;;;;4998976;28;20038;-80
2021/12/03 10:41:08;;;;;;;10.13;4.40;;;;;;;;;;4992338;28;20038;-82
2021/12/03 10:51:39;;;;;;;8.63;4.43;;;;;;;;;;4982753;28;20346;-80
2021/12/03 10:54:14;;;;;;;21.00;10.60;;;;;;;;;;4991254;28;20047;-80
2021/12/03 10:56:58;;;;;;;15.88;5.18;;;;;;;;;;4991481;28;20053;-80
2021/12/03 11:07:44;;;;;;;12.10;5.18;;;;;;;;;;4991681;28;20035;-80
2021/12/03 11:21:53;;;;;;;11.32;5.25;;;;;;;;;;4991899;28;20030;-80
2021/12/03 11:38:06;;;;;;;8.45;4.30;;;;;;;;;;4991362;28;20037;-79
2021/12/03 13:11:12;;;;;;;11.00;5.47;;;;;;;;;;4993583;28;20409;-79
2021/12/03 13:21:50;;;;;;;12.25;5.35;;;;;;;;;;4997260;28;20503;-76
2021/12/03 14:00:13;;;;;;;12.02;7.18;;;;;;;;;;4987478;28;20042;-83
2021/12/03 14:46:01;;;;;;;11.80;5.35;;;;;;;;;;4993493;28;20050;-80
2021/12/03 14:56:18;;;;;;;8.63;5.15;;;;;;;;;;4981507;28;20041;-80
2021/12/03 14:58:51;;;;;;;9.35;4.30;;;;;;;;;;4991346;28;20045;-80
2021/12/03 15:06:26;;;;;;;9.05;4.63;;;;;;;;;;4994823;28;20026;-79
2021/12/03 15:14:32;;;;;;;9.63;4.68;;;;;;;;;;4991681;28;20030;-81
2021/12/03 15:29:41;;;;;;;9.70;4.85;;;;;;;;;;4991005;28;20101;-80
2021/12/03 15:32:27;;;;;;;11.55;5.05;;;;;;;;;;4990939;28;20377;-78
2021/12/03 16:07:07;;;;;;;10.45;5.47;;;;;;;;;;5014750;28;20038;-76
2021/12/03 16:12:12;;;;;;;9.05;4.65;;;;;;;;;;4985328;28;20068;-74
2021/12/03 16:15:00;;;;;;;31.20;14.13;;;;;;;;;;4993238;28;20053;-74
2021/12/03 16:51:56;;;;;;;6.93;3.88;;;;;;;;;;4994993;28;20042;-76
2021/12/03 16:54:29;;;;;;;8.65;3.95;;;;;;;;;;4994429;28;20034;-78
2021/12/03 16:56:56;;;;;;;8.30;4.20;;;;;;;;;;4996091;28;20050;-78
2021/12/03 16:59:22;;;;;;;10.10;4.30;;;;;;;;;;4997001;28;20046;-76
2021/12/03 17:02:01;;;;;;;7.60;4.22;;;;;;;;;;4995536;28;20068;-76
2021/12/03 17:13:55;;;;;;;9.02;3.97;;;;;;;;;;4981574;28;20469;-75
2021/12/03 17:56:11;;;;;;;14.48;5.05;;;;;;;;;;4993481;28;20043;-76
2021/12/03 18:04:01;;;;;;;10.70;5.10;;;;;;;;;;4992696;28;20038;-76
2021/12/03 18:48:01;;;;;;;13.02;5.03;;;;;;;;;;4991372;28;20034;-76
2021/12/03 18:50:38;;;;;;;14.10;6.53;;;;;;;;;;4991980;28;20034;-76
2021/12/03 18:55:45;;;;;;;10.63;5.65;;;;;;;;;;4992102;28;20042;-76
2021/12/03 18:58:11;;;;;;;12.02;5.68;;;;;;;;;;4991410;28;20042;-76
2021/12/03 19:00:47;;;;;;;14.13;5.88;;;;;;;;;;4991971;28;20136;-76
2021/12/03 19:06:02;;;;;;;15.05;7.43;;;;;;;;;;4992303;28;20035;-76
2021/12/03 19:11:07;;;;;;;10.48;4.88;;;;;;;;;;4991891;28;20038;-76
2021/12/03 19:13:37;;;;;;;9.60;5.25;;;;;;;;;;4991555;28;20049;-76
2021/12/03 19:16:07;;;;;;;9.25;5.28;;;;;;;;;;4992424;28;20033;-76
2021/12/03 19:18:33;;;;;;;15.40;5.82;;;;;;;;;;4991556;28;20038;-76
2021/12/03 19:21:01;;;;;;;13.48;6.50;;;;;;;;;;4991213;28;20034;-76
2021/12/03 19:23:27;;;;;;;11.30;5.68;;;;;;;;;;4991366;28;20519;-75
2021/12/03 19:25:53;;;;;;;12.75;5.18;;;;;;;;;;4986652;28;20062;-87
2021/12/03 19:28:21;;;;;;;10.40;5.15;;;;;;;;;;4987658;28;20041;-70
2021/12/03 19:30:47;;;;;;;12.32;6.00;;;;;;;;;;5005944;28;20042;-72
2021/12/03 19:33:13;;;;;;;9.27;5.22;;;;;;;;;;4989884;28;20473;-73
2021/12/03 19:35:39;;;;;;;10.15;5.65;;;;;;;;;;4991249;28;20077;-78
2021/12/03 19:38:06;;;;;;;11.43;5.15;;;;;;;;;;4991090;28;20409;-77
2021/12/03 19:40:36;;;;;;;9.68;4.75;;;;;;;;;;4990287;28;20509;-78
2021/12/03 19:43:10;;;;;;;11.43;4.53;;;;;;;;;;4991132;28;20049;-78
2021/12/03 19:45:45;;;;;;;8.80;4.60;;;;;;;;;;5013385;28;20042;-79
2021/12/03 19:48:13;;;;;;;10.80;5.43;;;;;;;;;;4998083;28;20046;-76
2021/12/03 19:50:45;;;;;;;10.25;4.85;;;;;;;;;;4997268;28;20038;-78
2021/12/03 19:53:18;;;;;;;12.52;4.65;;;;;;;;;;4994089;28;20102;-75
2021/12/03 19:55:44;;;;;;;14.18;4.93;;;;;;;;;;4990222;28;20049;-78
2021/12/03 19:58:13;;;;;;;8.32;4.50;;;;;;;;;;4990490;28;20046;-76
2021/12/03 20:00:40;;;;;;;8.80;4.38;;;;;;;;;;5005478;28;20046;-75
2021/12/03 20:03:08;;;;;;;8.60;4.07;;;;;;;;;;4990158;28;20046;-76
2021/12/03 20:05:38;;;;;;;9.68;4.43;;;;;;;;;;4990687;28;20493;-76
2021/12/03 20:08:06;;;;;;;8.30;4.38;;;;;;;;;;4990904;28;20065;-75
2021/12/03 20:10:37;;;;;;;9.63;4.80;;;;;;;;;;4989405;28;20039;-75
2021/12/03 20:13:06;;;;;;;8.90;4.68;;;;;;;;;;4990923;28;20057;-77
2021/12/03 20:20:45;;;;;;;7.30;3.70;;;;;;;;;;4994614;28;20034;-74
2021/12/03 20:23:40;;;;;;;8.85;3.83;;;;;;;;;;4996262;28;20062;-77
2021/12/03 20:31:47;;;;;;;8.95;4.10;;;;;;;;;;4989709;28;20043;-79
2021/12/03 20:36:56;;;;;;;9.77;4.35;;;;;;;;;;4990667;28;20034;-81
2021/12/03 20:39:39;;;;;;;8.43;3.78;;;;;;;;;;5005526;28;20480;-80
2021/12/03 21:08:59;;;;;;;8.38;3.85;;;;;;;;;;4990194;28;20396;-76
2021/12/03 21:11:33;;;;;;;9.77;4.03;;;;;;;;;;4992549;28;20224;-77
2021/12/03 21:14:02;;;;;;;8.57;4.00;;;;;;;;;;4996017;28;20042;-75
2021/12/03 21:21:55;;;;;;;9.27;4.57;;;;;;;;;;4993091;28;20035;-78
2021/12/03 21:24:21;;;;;;;8.75;5.18;;;;;;;;;;4992841;28;20049;-78
2021/12/03 21:26:48;;;;;;;11.43;4.55;;;;;;;;;;4981633;28;20046;-78
2021/12/03 21:31:59;;;;;;;9.32;4.20;;;;;;;;;;5000096;28;20030;-83
2021/12/03 21:40:07;;;;;;;9.05;4.03;;;;;;;;;;4996954;28;20042;-73
2021/12/03 21:42:36;;;;;;;9.45;4.00;;;;;;;;;;4989913;28;20058;-79
2021/12/03 21:45:03;;;;;;;8.95;4.03;;;;;;;;;;4991860;28;20038;-79
2021/12/03 21:47:29;;;;;;;6.30;3.95;;;;;;;;;;4991914;28;20038;-79
2021/12/03 21:49:55;;;;;;;7.45;4.78;;;;;;;;;;4993068;28;20038;-78
2021/12/03 21:52:21;;;;;;;8.85;4.25;;;;;;;;;;4983069;28;20045;-80
2021/12/03 21:54:47;;;;;;;9.35;4.85;;;;;;;;;;5001225;28;20051;-74
2021/12/03 21:57:13;;;;;;;8.98;4.35;;;;;;;;;;4997712;28;20041;-74
2021/12/03 21:59:39;;;;;;;8.95;4.25;;;;;;;;;;4988924;28;20034;-75
2021/12/03 22:02:05;;;;;;;7.65;4.85;;;;;;;;;;4991532;28;20061;-75
2021/12/03 22:04:34;;;;;;;8.23;5.05;;;;;;;;;;4991589;28;20417;-75
2021/12/03 22:07:05;;;;;;;12.13;5.50;;;;;;;;;;4992094;28;20038;-74
2021/12/03 22:09:31;;;;;;;8.95;4.85;;;;;;;;;;4992591;28;20049;-74
2021/12/03 22:11:57;;;;;;;11.73;5.00;;;;;;;;;;4992322;28;20483;-73
2021/12/03 22:14:23;;;;;;;12.20;5.55;;;;;;;;;;4992559;28;20081;-74
2021/12/03 22:16:49;;;;;;;12.38;5.03;;;;;;;;;;4992290;28;20038;-74
2021/12/03 22:19:20;;;;;;;11.65;5.50;;;;;;;;;;4992470;28;20054;-74
2021/12/03 22:21:46;;;;;;;9.07;4.85;;;;;;;;;;4990887;28;20042;-74
2021/12/03 22:24:12;;;;;;;13.48;5.25;;;;;;;;;;4992753;28;20358;-74
2021/12/03 22:26:38;;;;;;;10.65;5.15;;;;;;;;;;4992440;28;20062;-74
2021/12/03 22:29:04;;;;;;;11.57;5.47;;;;;;;;;;4992448;28;20034;-74
2021/12/03 22:31:30;;;;;;;10.27;5.00;;;;;;;;;;4992213;28;20042;-74
2021/12/03 22:33:56;;;;;;;10.27;4.88;;;;;;;;;;4992699;28;20045;-75
2021/12/03 22:36:32;;;;;;;13.80;5.60;;;;;;;;;;4991183;28;20039;-76
2021/12/03 22:38:58;;;;;;;10.02;5.78;;;;;;;;;;4992555;28;20420;-75
2021/12/03 22:41:24;;;;;;;9.90;5.55;;;;;;;;;;4992175;28;20055;-74
2021/12/03 22:43:52;;;;;;;9.88;5.03;;;;;;;;;;4991974;28;20038;-73
2021/12/03 22:51:46;;;;;;;9.25;5.65;;;;;;;;;;4997028;28;20042;-75
2021/12/03 22:54:13;;;;;;;13.63;5.80;;;;;;;;;;4991915;28;20524;-75
2021/12/03 22:56:39;;;;;;;9.30;5.07;;;;;;;;;;4991656;28;20047;-75
2021/12/03 22:59:04;;;;;;;11.63;5.45;;;;;;;;;;4989974;28;20041;-75
2021/12/03 23:01:30;;;;;;;14.65;5.57;;;;;;;;;;4991397;28;20077;-75
2021/12/03 23:03:57;;;;;;;12.85;5.88;;;;;;;;;;4990026;28;20053;-75
2021/12/03 23:06:23;;;;;;;12.05;5.95;;;;;;;;;;4991531;28;20049;-75
2021/12/03 23:08:49;;;;;;;12.60;5.25;;;;;;;;;;4991089;28;20118;-75
2021/12/03 23:11:16;;;;;;;12.35;5.18;;;;;;;;;;4991899;28;20074;-75
2021/12/03 23:13:43;;;;;;;10.18;5.78;;;;;;;;;;4991160;28;20045;-74
2021/12/03 23:16:09;;;;;;;13.70;5.55;;;;;;;;;;5005744;28;20041;-75
2021/12/03 23:18:35;;;;;;;11.57;5.13;;;;;;;;;;4991767;28;20038;-74
2021/12/03 23:21:03;;;;;;;11.18;4.90;;;;;;;;;;4991345;28;20031;-74